^^
Your Local Weather - Clay, NY Station Historical Data
Daily Summary for December 9, 2017 Units:  English    Metric   Both
« Previous Day
Next Day »
Daily Weekly Monthly Yearly Custom
  High: Low: Average:
Temperature: 33.8 °F 21.7 °F 26.7 °F
Dew Point: 22.4 °F 14.7 °F 18.5 °F
Humidity: 88% 59% 71%
Wind Speed: 4.0mph 0.0mph 0.6mph
Wind Gust: 7.0mph - -
Wind- - ESE
Pressure: 29.92 in 29.71 in -
Precipitation: 0.00 in    
Historical Graphs
 
 
Tabular Data for December 9, 2017
Time Temperature Dew Point Pressure Wind Wind Speed Wind Gust Humidity Rainfall Rate (Hourly) solar
00:04 26.7 °F 14.7 °F 29.90 in Calm     60% 0.00 in 0 W/m2
00:22 26.7 °F 15.0 °F 29.91 in SW 1.0 mph 1.0 mph 61% 0.00 in 0 W/m2
00:28 26.7 °F 15.0 °F 29.90 in SW 1.0 mph 2.0 mph 61% 0.00 in 0 W/m2
00:34 26.7 °F 15.0 °F 29.91 in Calm   1.0 mph 61% 0.00 in 0 W/m2
00:40 26.8 °F 15.1 °F 29.90 in SW 1.0 mph 2.0 mph 61% 0.00 in 0 W/m2
00:46 26.8 °F 15.1 °F 29.90 in SW 1.0 mph 2.0 mph 61% 0.00 in 0 W/m2
00:52 26.8 °F 15.1 °F 29.90 in SW 1.0 mph 1.0 mph 61% 0.00 in 0 W/m2
00:58 26.7 °F 15.0 °F 29.90 in Calm   1.0 mph 61% 0.00 in 0 W/m2
01:04 26.7 °F 15.4 °F 29.91 in Calm     62% 0.00 in 0 W/m2
01:10 26.6 °F 14.9 °F 29.90 in Calm     61% 0.00 in 0 W/m2
01:16 26.7 °F 15.0 °F 29.90 in SW 1.0 mph 1.0 mph 61% 0.00 in 0 W/m2
01:22 26.7 °F 15.0 °F 29.90 in SW 1.0 mph 2.0 mph 61% 0.00 in 0 W/m2
01:28 26.8 °F 15.1 °F 29.91 in SW 1.0 mph 3.0 mph 61% 0.00 in 0 W/m2
01:34 26.8 °F 15.1 °F 29.90 in SW 1.0 mph 1.0 mph 61% 0.00 in 0 W/m2
01:40 27.0 °F 15.3 °F 29.91 in SW 2.0 mph 2.0 mph 61% 0.00 in 0 W/m2
01:46 26.9 °F 15.2 °F 29.91 in SW 1.0 mph 2.0 mph 61% 0.00 in 0 W/m2
01:52 26.9 °F 15.2 °F 29.91 in SSW 1.0 mph 1.0 mph 61% 0.00 in 0 W/m2
01:58 26.8 °F 15.1 °F 29.91 in SSW 1.0 mph 2.0 mph 61% 0.00 in 0 W/m2
02:04 26.6 °F 14.9 °F 29.91 in Calm   1.0 mph 61% 0.00 in 0 W/m2
02:10 26.7 °F 15.0 °F 29.90 in SSW 1.0 mph 1.0 mph 61% 0.00 in 0 W/m2
02:16 26.7 °F 15.0 °F 29.90 in SSW 1.0 mph 1.0 mph 61% 0.00 in 0 W/m2
02:22 26.6 °F 14.9 °F 29.91 in Calm     61% 0.00 in 0 W/m2
02:28 26.5 °F 15.2 °F 29.92 in Calm     62% 0.00 in 0 W/m2
02:34 26.4 °F 15.1 °F 29.92 in Calm   1.0 mph 62% 0.00 in 0 W/m2
02:40 26.3 °F 15.0 °F 29.91 in Calm     62% 0.00 in 0 W/m2
02:46 26.3 °F 15.0 °F 29.92 in Calm     62% 0.00 in 0 W/m2
02:52 26.2 °F 15.3 °F 29.92 in Calm     63% 0.00 in 0 W/m2
02:58 25.7 °F 15.2 °F 29.92 in Calm     64% 0.00 in 0 W/m2
03:04 25.2 °F 15.8 °F 29.91 in Calm     67% 0.00 in 0 W/m2
03:10 24.3 °F 15.6 °F 29.91 in Calm     69% 0.00 in 0 W/m2
03:22 23.9 °F 15.5 °F 29.90 in Calm     70% 0.00 in 0 W/m2
03:28 24.1 °F 16.1 °F 29.90 in Calm     71% 0.00 in 0 W/m2
03:34 24.0 °F 16.0 °F 29.91 in Calm     71% 0.00 in 0 W/m2
03:40 23.9 °F 16.2 °F 29.90 in Calm     72% 0.00 in 0 W/m2
03:46 23.8 °F 16.4 °F 29.90 in Calm     73% 0.00 in 0 W/m2
03:52 23.7 °F 16.0 °F 29.90 in Calm     72% 0.00 in 0 W/m2
03:58 23.5 °F 15.8 °F 29.90 in Calm     72% 0.00 in 0 W/m2
04:04 23.3 °F 15.9 °F 29.90 in Calm     73% 0.00 in 0 W/m2
04:10 23.1 °F 16.4 °F 29.90 in Calm     75% 0.00 in 0 W/m2
04:16 23.1 °F 16.4 °F 29.89 in Calm     75% 0.00 in 0 W/m2
04:22 22.9 °F 16.5 °F 29.90 in Calm     76% 0.00 in 0 W/m2
04:28 22.9 °F 16.2 °F 29.90 in Calm     75% 0.00 in 0 W/m2
04:34 22.8 °F 16.1 °F 29.90 in Calm     75% 0.00 in 0 W/m2
04:40 22.8 °F 16.4 °F 29.90 in Calm     76% 0.00 in 0 W/m2
04:46 22.6 °F 16.2 °F 29.90 in Calm     76% 0.00 in 0 W/m2
04:52 22.5 °F 16.4 °F 29.90 in Calm     77% 0.00 in 0 W/m2
04:58 22.4 °F 16.3 °F 29.91 in Calm     77% 0.00 in 0 W/m2
05:04 22.4 °F 16.0 °F 29.91 in Calm     76% 0.00 in 0 W/m2
05:10 22.4 °F 16.3 °F 29.91 in Calm     77% 0.00 in 0 W/m2
05:22 22.5 °F 16.7 °F 29.90 in Calm     78% 0.00 in 0 W/m2
05:28 22.6 °F 16.8 °F 29.90 in Calm     78% 0.00 in 0 W/m2
05:34 22.7 °F 17.2 °F 29.90 in Calm     79% 0.00 in 0 W/m2
05:40 22.8 °F 17.3 °F 29.91 in Calm     79% 0.00 in 0 W/m2
05:52 23.0 °F 17.5 °F 29.90 in Calm     79% 0.00 in 0 W/m2
05:58 23.2 °F 17.9 °F 29.90 in Calm     80% 0.00 in 0 W/m2
06:04 23.5 °F 18.5 °F 29.90 in Calm     81% 0.00 in 0 W/m2
06:10 23.6 °F 18.0 °F 29.90 in Calm     79% 0.00 in 0 W/m2
06:22 23.3 °F 17.5 °F 29.90 in Calm     78% 0.00 in 0 W/m2
06:28 23.3 °F 17.2 °F 29.91 in Calm     77% 0.00 in 0 W/m2
06:34 23.2 °F 17.4 °F 29.90 in Calm     78% 0.00 in 0 W/m2
06:52 22.5 °F 17.0 °F 29.91 in Calm     79% 0.00 in 0 W/m2
06:58 22.6 °F 16.8 °F 29.92 in Calm     78% 0.00 in 0 W/m2
07:04 22.5 °F 16.7 °F 29.92 in Calm     78% 0.00 in 0 W/m2
07:10 22.4 °F 16.6 °F 29.91 in Calm     78% 0.00 in 0 W/m2
07:12 22.5 °F 17.0 °F 29.91 in Calm     79% 0.00 in 0 W/m2
07:18 22.7 °F 17.5 °F 29.91 in Calm     80% 0.00 in 0 W/m2
07:24 22.8 °F 17.8 °F 29.92 in Calm     81% 0.00 in 0 W/m2
07:30 22.8 °F 17.8 °F 29.92 in Calm     81% 0.00 in 0 W/m2
07:36 22.8 °F 17.8 °F 29.91 in Calm     81% 0.00 in 9 W/m2
07:54 23.3 °F 18.0 °F 29.91 in Calm     80% 0.00 in 16 W/m2
08:00 23.2 °F 17.9 °F 29.91 in Calm     80% 0.00 in 16 W/m2
08:06 22.9 °F 17.7 °F 29.91 in Calm     80% 0.00 in 19 W/m2
08:12 22.7 °F 17.5 °F 29.91 in Calm     80% 0.00 in 32 W/m2
08:18 22.6 °F 17.4 °F 29.91 in Calm     80% 0.00 in 40 W/m2
08:24 22.7 °F 17.5 °F 29.90 in Calm     80% 0.00 in 40 W/m2
08:30 23.2 °F 17.7 °F 29.90 in Calm     79% 0.00 in 46 W/m2
08:36 23.4 °F 17.8 °F 29.90 in Calm     79% 0.00 in 63 W/m2
08:42 23.6 °F 18.0 °F 29.90 in Calm     79% 0.00 in 86 W/m2
08:48 24.1 °F 18.2 °F 29.90 in Calm     78% 0.00 in 90 W/m2
08:54 24.8 °F 18.6 °F 29.90 in Calm     77% 0.00 in 86 W/m2
09:00 25.3 °F 18.5 °F 29.90 in Calm   1.0 mph 75% 0.00 in 93 W/m2
09:06 25.9 °F 18.7 °F 29.89 in Calm   2.0 mph 74% 0.00 in 109 W/m2
09:12 26.4 °F 18.6 °F 29.89 in SE 1.0 mph 2.0 mph 72% 0.00 in 113 W/m2
09:18 26.7 °F 18.6 °F 29.89 in SE 1.0 mph 2.0 mph 71% 0.00 in 114 W/m2
09:24 26.9 °F 18.4 °F 29.89 in East 1.0 mph 1.0 mph 70% 0.00 in 104 W/m2
09:30 27.2 °F 18.4 °F 29.88 in SE 1.0 mph 3.0 mph 69% 0.00 in 107 W/m2
09:36 27.4 °F 18.6 °F 29.87 in SE 1.0 mph 3.0 mph 69% 0.00 in 111 W/m2
09:42 27.7 °F 18.8 °F 29.88 in SE 1.0 mph 2.0 mph 69% 0.00 in 113 W/m2
09:48 27.8 °F 18.6 °F 29.88 in SE 1.0 mph 2.0 mph 68% 0.00 in 111 W/m2
09:54 28.0 °F 18.5 °F 29.88 in SE 1.0 mph 1.0 mph 67% 0.00 in 158 W/m2
10:00 28.3 °F 18.7 °F 29.87 in SE 1.0 mph 2.0 mph 67% 0.00 in 144 W/m2
10:06 28.5 °F 18.6 °F 29.87 in SE 1.0 mph 2.0 mph 66% 0.00 in 186 W/m2
10:12 28.7 °F 18.8 °F 29.87 in SE 1.0 mph 1.0 mph 66% 0.00 in 121 W/m2
10:18 28.7 °F 18.4 °F 29.87 in SE 1.0 mph 2.0 mph 65% 0.00 in 125 W/m2
10:24 28.9 °F 19.0 °F 29.87 in ESE 1.0 mph 2.0 mph 66% 0.00 in 165 W/m2
10:30 29.1 °F 18.8 °F 29.88 in East 1.0 mph 6.0 mph 65% 0.00 in 202 W/m2
10:48 30.0 °F 19.3 °F 29.87 in East 1.0 mph 1.0 mph 64% 0.00 in 185 W/m2
10:54 30.3 °F 19.2 °F 29.86 in Calm   1.0 mph 63% 0.00 in 169 W/m2
11:00 30.3 °F 18.8 °F 29.86 in SE 1.0 mph 1.0 mph 62% 0.00 in 188 W/m2
11:06 30.5 °F 19.4 °F 29.86 in Calm   1.0 mph 63% 0.00 in 227 W/m2
11:12 30.9 °F 19.4 °F 29.86 in ENE 1.0 mph 2.0 mph 62% 0.00 in 271 W/m2
11:18 31.1 °F 19.2 °F 29.85 in ENE 1.0 mph 1.0 mph 61% 0.00 in 216 W/m2
11:24 31.2 °F 19.3 °F 29.85 in Calm   1.0 mph 61% 0.00 in 195 W/m2
11:30 31.0 °F 18.7 °F 29.84 in NE 1.0 mph 5.0 mph 60% 0.00 in 171 W/m2
11:36 31.0 °F 18.7 °F 29.85 in ENE 2.0 mph 2.0 mph 60% 0.00 in 169 W/m2
11:48 31.4 °F 19.5 °F 29.84 in ENE 1.0 mph 1.0 mph 61% 0.00 in 178 W/m2
11:54 31.6 °F 19.7 °F 29.83 in East 1.0 mph 3.0 mph 61% 0.00 in 162 W/m2
12:00 31.7 °F 20.2 °F 29.83 in East 1.0 mph 1.0 mph 62% 0.00 in 195 W/m2
12:06 31.7 °F 20.2 °F 29.82 in East 2.0 mph 2.0 mph 62% 0.00 in 188 W/m2
12:12 31.7 °F 19.8 °F 29.83 in ENE 3.0 mph 3.0 mph 61% 0.00 in 200 W/m2
12:18 31.9 °F 20.7 °F 29.82 in ENE 2.0 mph 4.0 mph 63% 0.00 in 214 W/m2
12:24 31.9 °F 20.3 °F 29.81 in NE 2.0 mph 4.0 mph 62% 0.00 in 248 W/m2
12:30 32.0 °F 20.8 °F 29.81 in East 3.0 mph 5.0 mph 63% 0.00 in 199 W/m2
12:36 32.0 °F 21.2 °F 29.80 in NE 3.0 mph 5.0 mph 64% 0.00 in 209 W/m2
12:42 32.3 °F 21.8 °F 29.81 in ENE 1.0 mph 2.0 mph 65% 0.00 in 179 W/m2
12:48 32.5 °F 21.3 °F 29.80 in ENE 1.0 mph 4.0 mph 63% 0.00 in 199 W/m2
12:54 32.3 °F 20.7 °F 29.80 in ENE 2.0 mph 4.0 mph 62% 0.00 in 176 W/m2
13:00 32.3 °F 21.5 °F 29.79 in ENE 2.0 mph 2.0 mph 64% 0.00 in 183 W/m2
13:06 32.3 °F 21.8 °F 29.80 in ESE 2.0 mph 3.0 mph 65% 0.00 in 223 W/m2
13:12 32.6 °F 21.8 °F 29.80 in East 1.0 mph 2.0 mph 64% 0.00 in 285 W/m2
13:18 32.7 °F 21.5 °F 29.79 in East 2.0 mph 5.0 mph 63% 0.00 in 425 W/m2
13:24 33.7 °F 22.4 °F 29.79 in East 2.0 mph 3.0 mph 63% 0.00 in 410 W/m2
13:30 33.6 °F 22.0 °F 29.78 in ENE 2.0 mph 4.0 mph 62% 0.00 in 359 W/m2
13:36 33.7 °F 22.1 °F 29.78 in East 3.0 mph 3.0 mph 62% 0.00 in 388 W/m2
13:42 33.8 °F 22.1 °F 29.78 in East 3.0 mph 7.0 mph 62% 0.00 in 396 W/m2
13:48 33.7 °F 22.4 °F 29.78 in SE 3.0 mph 3.0 mph 63% 0.00 in 227 W/m2
13:54 33.4 °F 21.8 °F 29.77 in SE 3.0 mph 3.0 mph 62% 0.00 in 193 W/m2
14:00 33.3 °F 21.7 °F 29.77 in East 3.0 mph 3.0 mph 62% 0.00 in 269 W/m2
14:18 33.6 °F 21.2 °F 29.76 in SE 2.0 mph 4.0 mph 60% 0.00 in 251 W/m2
14:24 33.7 °F 21.3 °F 29.76 in SSE 2.0 mph 4.0 mph 60% 0.00 in 253 W/m2
14:30 33.8 °F 21.0 °F 29.76 in ENE 2.0 mph 3.0 mph 59% 0.00 in 272 W/m2
14:36 33.5 °F 20.7 °F 29.76 in SE 4.0 mph 5.0 mph 59% 0.00 in 181 W/m2
14:48 33.4 °F 21.0 °F 29.76 in NE 2.0 mph 4.0 mph 60% 0.00 in 149 W/m2
14:54 33.6 °F 21.6 °F 29.76 in East 2.0 mph 3.0 mph 61% 0.00 in 127 W/m2
15:00 33.4 °F 21.0 °F 29.76 in East 2.0 mph 2.0 mph 60% 0.00 in 137 W/m2
15:12 32.9 °F 20.9 °F 29.76 in SE 2.0 mph 2.0 mph 61% 0.00 in 163 W/m2
15:18 32.9 °F 20.9 °F 29.75 in SSE 2.0 mph 3.0 mph 61% 0.00 in 116 W/m2
15:24 32.8 °F 20.4 °F 29.75 in East 2.0 mph 6.0 mph 60% 0.00 in 105 W/m2
15:30 32.6 °F 19.8 °F 29.74 in ENE 2.0 mph 2.0 mph 59% 0.00 in 58 W/m2
15:36 32.3 °F 20.0 °F 29.75 in ENE 3.0 mph 3.0 mph 60% 0.00 in 65 W/m2
15:42 32.2 °F 20.2 °F 29.75 in ENE 2.0 mph 3.0 mph 61% 0.00 in 83 W/m2
15:48 32.0 °F 20.1 °F 29.75 in SE 2.0 mph 3.0 mph 61% 0.00 in 42 W/m2
15:54 31.9 °F 20.0 °F 29.75 in ESE 1.0 mph 3.0 mph 61% 0.00 in 37 W/m2
16:00 31.7 °F 20.2 °F 29.75 in ESE 1.0 mph 1.0 mph 62% 0.00 in 26 W/m2
16:18 31.1 °F 20.0 °F 29.75 in East 1.0 mph 2.0 mph 63% 0.00 in 12 W/m2
16:30 30.9 °F 19.8 °F 29.75 in East 1.0 mph 2.0 mph 63% 0.00 in 5 W/m2
16:36 30.7 °F 19.6 °F 29.75 in Calm   2.0 mph 63% 0.00 in 0 W/m2
16:42 30.5 °F 19.4 °F 29.75 in Calm     63% 0.00 in 0 W/m2
16:48 30.3 °F 19.6 °F 29.74 in Calm     64% 0.00 in 0 W/m2
16:54 30.0 °F 19.7 °F 29.74 in Calm     65% 0.00 in 0 W/m2
17:00 29.8 °F 19.8 °F 29.74 in Calm     66% 0.00 in 0 W/m2
17:12 29.8 °F 20.2 °F 29.74 in Calm     67% 0.00 in 0 W/m2
17:18 29.7 °F 20.1 °F 29.73 in Calm     67% 0.00 in 0 W/m2
17:24 29.6 °F 20.3 °F 29.74 in Calm     68% 0.00 in 0 W/m2
17:30 29.4 °F 20.5 °F 29.74 in Calm     69% 0.00 in 0 W/m2
17:42 28.8 °F 20.2 °F 29.74 in Calm     70% 0.00 in 0 W/m2
17:48 28.6 °F 20.7 °F 29.75 in Calm     72% 0.00 in 0 W/m2
17:54 28.3 °F 20.7 °F 29.75 in Calm     73% 0.00 in 0 W/m2
18:00 28.1 °F 20.6 °F 29.75 in Calm     73% 0.00 in 0 W/m2
18:18 27.3 °F 20.1 °F 29.75 in Calm     74% 0.00 in 0 W/m2
18:24 27.4 °F 20.5 °F 29.75 in Calm     75% 0.00 in 0 W/m2
18:30 27.3 °F 20.4 °F 29.75 in Calm     75% 0.00 in 0 W/m2
18:36 27.2 °F 20.3 °F 29.75 in Calm     75% 0.00 in 0 W/m2
18:42 27.0 °F 20.1 °F 29.74 in Calm     75% 0.00 in 0 W/m2
18:48 26.9 °F 20.3 °F 29.74 in Calm     76% 0.00 in 0 W/m2
18:54 26.8 °F 20.6 °F 29.74 in Calm     77% 0.00 in 0 W/m2
19:00 26.7 °F 20.5 °F 29.74 in Calm     77% 0.00 in 0 W/m2
19:06 26.7 °F 20.5 °F 29.74 in Calm     77% 0.00 in 0 W/m2
19:12 26.5 °F 20.3 °F 29.75 in Calm     77% 0.00 in 0 W/m2
19:18 26.4 °F 20.2 °F 29.74 in Calm     77% 0.00 in 0 W/m2
19:24 26.4 °F 20.2 °F 29.74 in Calm     77% 0.00 in 0 W/m2
19:42 26.0 °F 20.1 °F 29.73 in Calm     78% 0.00 in 0 W/m2
19:48 25.8 °F 19.9 °F 29.73 in Calm     78% 0.00 in 0 W/m2
19:54 25.6 °F 20.0 °F 29.73 in Calm     79% 0.00 in 0 W/m2
20:00 25.3 °F 19.7 °F 29.73 in Calm     79% 0.00 in 0 W/m2
20:12 24.7 °F 19.4 °F 29.73 in Calm     80% 0.00 in 0 W/m2
20:18 24.6 °F 19.3 °F 29.72 in Calm     80% 0.00 in 0 W/m2
20:24 24.4 °F 19.4 °F 29.73 in Calm     81% 0.00 in 0 W/m2
20:30 24.2 °F 19.2 °F 29.72 in Calm     81% 0.00 in 0 W/m2
20:42 23.7 °F 19.0 °F 29.72 in Calm     82% 0.00 in 0 W/m2
20:48 23.4 °F 18.7 °F 29.72 in Calm     82% 0.00 in 0 W/m2
20:54 23.1 °F 18.7 °F 29.72 in Calm     83% 0.00 in 0 W/m2
21:00 22.8 °F 18.4 °F 29.72 in Calm     83% 0.00 in 0 W/m2
21:06 22.6 °F 18.2 °F 29.72 in Calm     83% 0.00 in 0 W/m2
21:12 22.4 °F 18.3 °F 29.72 in Calm     84% 0.00 in 0 W/m2
21:18 22.3 °F 18.2 °F 29.72 in Calm     84% 0.00 in 0 W/m2
21:24 22.4 °F 18.6 °F 29.73 in Calm     85% 0.00 in 0 W/m2
21:30 22.5 °F 18.7 °F 29.73 in Calm     85% 0.00 in 0 W/m2
21:42 22.2 °F 18.1 °F 29.73 in Calm     84% 0.00 in 0 W/m2
21:48 22.0 °F 18.2 °F 29.73 in Calm     85% 0.00 in 0 W/m2
21:54 22.1 °F 18.3 °F 29.73 in Calm     85% 0.00 in 0 W/m2
22:00 22.1 °F 18.3 °F 29.73 in Calm     85% 0.00 in 0 W/m2
22:18 21.9 °F 18.4 °F 29.73 in Calm     86% 0.00 in 0 W/m2
22:24 21.9 °F 18.4 °F 29.73 in Calm     86% 0.00 in 0 W/m2
22:30 21.9 °F 18.4 °F 29.73 in Calm     86% 0.00 in 0 W/m2
22:32 21.9 °F 18.4 °F 29.73 in Calm     86% 0.00 in 0 W/m2
22:36 22.0 °F 18.5 °F 29.73 in Calm     86% 0.00 in 0 W/m2
22:48 21.8 °F 18.3 °F 29.73 in Calm     86% 0.00 in 0 W/m2
22:54 21.7 °F 18.4 °F 29.73 in Calm     87% 0.00 in 0 W/m2
23:00 21.9 °F 18.6 °F 29.73 in Calm     87% 0.00 in 0 W/m2
23:06 22.1 °F 18.8 °F 29.73 in Calm     87% 0.00 in 0 W/m2
23:12 22.4 °F 19.1 °F 29.72 in Calm     87% 0.00 in 0 W/m2
23:18 22.6 °F 19.6 °F 29.72 in Calm     88% 0.00 in 0 W/m2
23:24 22.8 °F 19.8 °F 29.72 in Calm     88% 0.00 in 0 W/m2
23:30 23.0 °F 20.0 °F 29.72 in Calm     88% 0.00 in 0 W/m2
23:36 23.1 °F 19.8 °F 29.72 in Calm     87% 0.00 in 0 W/m2
23:42 23.3 °F 20.3 °F 29.72 in Calm     88% 0.00 in 0 W/m2
23:48 23.3 °F 20.3 °F 29.72 in Calm     88% 0.00 in 0 W/m2
23:54 23.4 °F 20.4 °F 29.71 in Calm     88% 0.00 in 0 W/m2
Country Meadow, Clay, NY, USA
Compliments of Weather Underground - 2 mb